createdAt,value
2022-09-23T00:01:11.280Z,12.34
2022-09-23T00:03:45.474Z,12.31
2022-09-23T00:06:21.619Z,12.29
2022-09-23T00:08:49.926Z,12.26
2022-09-23T00:11:23.645Z,12.24
2022-09-23T00:13:54.712Z,12.21
2022-09-23T00:16:32.566Z,12.18
2022-09-23T00:19:03.039Z,12.15
2022-09-23T00:21:30.120Z,12.10
2022-09-23T00:23:57.189Z,12.11
2022-09-23T00:26:24.293Z,12.07
2022-09-23T00:28:51.756Z,12.06
2022-09-23T00:31:23.224Z,12.03
2022-09-23T00:33:55.324Z,12.02
2022-09-23T00:36:22.539Z,11.98
2022-09-23T00:38:49.487Z,11.93
2022-09-23T00:41:16.523Z,11.95
2022-09-23T00:44:01.036Z,11.92
2022-09-23T00:46:37.163Z,11.88
2022-09-23T00:49:25.240Z,11.84
2022-09-23T00:52:15.477Z,11.80
2022-09-23T00:54:46.102Z,11.77
2022-09-23T00:57:16.440Z,11.75
2022-09-23T00:59:44.349Z,11.73
2022-09-23T01:02:14.153Z,11.71
2022-09-23T01:04:41.474Z,11.67
2022-09-23T01:07:08.412Z,11.65
2022-09-23T01:09:35.853Z,11.62
2022-09-23T01:12:40.492Z,11.59
2022-09-23T01:15:22.991Z,11.56
2022-09-23T01:18:12.100Z,11.52
2022-09-23T01:20:59.269Z,11.50
2022-09-23T01:23:41.422Z,11.47
2022-09-23T01:26:17.912Z,11.44
2022-09-23T01:29:28.910Z,11.40
2022-09-23T01:32:32.736Z,11.37
2022-09-23T01:35:17.122Z,11.34
2022-09-23T01:38:22.695Z,11.32
2022-09-23T01:41:13.139Z,11.28
2022-09-23T01:44:00.760Z,11.15
2022-09-23T01:46:37.738Z,11.24
2022-09-23T01:49:16.047Z,11.22
2022-09-23T01:51:49.563Z,11.14
2022-09-23T01:54:26.100Z,11.17
2022-09-23T01:57:03.696Z,11.15
2022-09-23T01:59:48.175Z,11.14
2022-09-23T02:02:29.722Z,11.12
2022-09-23T02:05:15.008Z,11.10
2022-09-23T02:07:50.267Z,11.09
2022-09-23T02:10:25.123Z,11.09
2022-09-23T02:12:58.213Z,11.09
2022-09-23T02:15:40.307Z,11.08
2022-09-23T02:18:27.187Z,11.06
2022-09-23T02:21:00.533Z,11.05
2022-09-23T02:23:35.273Z,11.03
2022-09-23T02:26:29.917Z,11.01
2022-09-23T02:29:28.122Z,10.97
2022-09-23T02:32:14.979Z,10.95
2022-09-23T02:35:09.065Z,10.94
2022-09-23T02:38:27.087Z,10.91
2022-09-23T02:41:09.416Z,10.88
2022-09-23T02:43:59.875Z,10.87
2022-09-23T02:46:28.309Z,10.84
2022-09-23T02:48:57.831Z,10.83
2022-09-23T02:51:25.743Z,10.81
2022-09-23T02:53:56.325Z,10.79
2022-09-23T02:56:24.132Z,10.78
2022-09-23T02:58:54.068Z,10.77
2022-09-23T03:01:59.673Z,10.75
2022-09-23T03:05:00.975Z,10.70
2022-09-23T03:07:45.955Z,10.68
2022-09-23T03:10:31.177Z,10.66
2022-09-23T03:13:11.183Z,10.64
2022-09-23T03:16:19.367Z,10.62
2022-09-23T03:18:57.245Z,10.52
2022-09-23T03:21:37.125Z,10.56
2022-09-23T03:24:07.736Z,10.54
2022-09-23T03:26:37.825Z,10.55
2022-09-23T03:29:09.357Z,10.54
2022-09-23T03:31:42.424Z,10.53
2022-09-23T03:34:21.338Z,10.51
2022-09-23T03:37:15.780Z,10.47
2022-09-23T03:39:48.806Z,10.40
2022-09-23T03:42:30.062Z,10.42
2022-09-23T03:44:57.717Z,10.39
2022-09-23T03:47:28.354Z,10.32
2022-09-23T03:49:56.787Z,10.33
2022-09-23T03:52:25.050Z,10.33
2022-09-23T03:54:52.797Z,10.32
2022-09-23T03:57:22.256Z,10.32
2022-09-23T03:59:50.671Z,10.31
2022-09-23T04:02:19.582Z,10.31
2022-09-23T04:04:46.551Z,10.31
2022-09-23T04:07:14.047Z,10.30
2022-09-23T04:09:41.003Z,10.29
2022-09-23T04:12:09.087Z,10.25
2022-09-23T04:14:35.959Z,10.29
2022-09-23T04:17:02.839Z,10.29
2022-09-23T04:19:29.736Z,10.28
2022-09-23T04:21:56.625Z,10.27
2022-09-23T04:24:23.791Z,10.26
2022-09-23T04:26:56.615Z,10.24
2022-09-23T04:29:24.536Z,10.24
2022-09-23T04:31:51.602Z,10.20
2022-09-23T04:34:19.555Z,10.24
2022-09-23T04:36:47.841Z,10.24
2022-09-23T04:39:15.880Z,10.23
2022-09-23T04:41:43.964Z,10.23
2022-09-23T04:44:13.426Z,10.22
2022-09-23T04:46:42.028Z,10.21
2022-09-23T04:49:08.964Z,10.17
2022-09-23T04:51:36.171Z,10.20
2022-09-23T04:54:03.064Z,10.20
2022-09-23T04:56:33.745Z,10.19
2022-09-23T04:59:01.763Z,10.18
2022-09-23T05:01:34.614Z,10.17
2022-09-23T05:04:10.145Z,10.17
2022-09-23T05:06:37.332Z,10.16
2022-09-23T05:09:08.554Z,10.16
2022-09-23T05:11:36.001Z,10.14
2022-09-23T05:14:03.098Z,10.13
2022-09-23T05:16:30.145Z,10.17
2022-09-23T05:18:58.059Z,10.18
2022-09-23T05:21:28.891Z,10.19
2022-09-23T05:23:58.989Z,10.20
2022-09-23T05:26:29.044Z,10.21
2022-09-23T05:28:56.649Z,10.21
2022-09-23T05:31:29.347Z,10.24
2022-09-23T05:34:04.785Z,10.27
2022-09-23T05:36:38.347Z,10.30
2022-09-23T05:39:07.074Z,10.33
2022-09-23T05:41:34.372Z,10.33
2022-09-23T05:44:01.985Z,10.39
2022-09-23T05:46:30.859Z,10.45
2022-09-23T05:49:02.525Z,10.50
2022-09-23T05:51:31.543Z,10.55
2022-09-23T05:54:00.026Z,10.62
2022-09-23T05:56:28.725Z,10.67
2022-09-23T05:58:58.216Z,10.74
2022-09-23T06:01:28.284Z,10.81
2022-09-23T06:03:57.971Z,10.86
2022-09-23T06:06:32.688Z,10.93
2022-09-23T06:09:01.155Z,10.98
2022-09-23T06:11:32.142Z,11.05
2022-09-23T06:14:02.909Z,11.09
2022-09-23T06:16:33.267Z,11.14
2022-09-23T06:19:05.864Z,11.19
2022-09-23T06:21:37.212Z,11.24
2022-09-23T06:24:04.802Z,11.31
2022-09-23T06:26:34.846Z,11.37
2022-09-23T06:29:02.824Z,11.38
2022-09-23T06:31:30.334Z,11.50
2022-09-23T06:34:08.091Z,11.60
2022-09-23T06:36:44.087Z,11.67
2022-09-23T06:39:15.845Z,11.73
2022-09-23T06:41:43.890Z,11.84
2022-09-23T06:44:14.751Z,11.94
2022-09-23T06:46:41.917Z,11.99
2022-09-23T06:49:08.933Z,12.11
2022-09-23T06:51:35.816Z,12.21
2022-09-23T06:54:03.514Z,12.33
2022-09-23T06:56:33.585Z,12.44
2022-09-23T06:59:04.778Z,12.57
2022-09-23T07:01:31.777Z,12.68
2022-09-23T07:03:59.711Z,12.80
2022-09-23T07:06:26.627Z,12.92
2022-09-23T07:08:53.495Z,13.05
2022-09-23T07:11:22.521Z,13.17
2022-09-23T07:13:49.522Z,13.30
2022-09-23T07:16:16.508Z,13.42
2022-09-23T07:18:43.485Z,13.56
2022-09-23T07:21:15.248Z,13.69
2022-09-23T07:23:43.564Z,13.79
2022-09-23T07:26:10.944Z,13.96
2022-09-23T07:28:38.629Z,14.14
2022-09-23T07:31:12.275Z,14.29
2022-09-23T07:33:42.224Z,14.40
2022-09-23T07:36:14.117Z,14.58
2022-09-23T07:38:45.156Z,14.72
2022-09-23T07:41:16.877Z,14.82
2022-09-23T07:43:44.863Z,15.00
2022-09-23T07:46:16.763Z,15.13
2022-09-23T07:48:45.727Z,15.27
2022-09-23T07:51:36.353Z,15.40
2022-09-23T07:54:10.160Z,15.51
2022-09-23T07:56:38.265Z,15.63
2022-09-23T07:59:08.792Z,15.73
2022-09-23T08:01:41.252Z,15.82
2022-09-23T08:04:17.091Z,15.94
2022-09-23T08:06:49.605Z,16.03
2022-09-23T08:09:18.797Z,16.16
2022-09-23T08:11:45.691Z,16.27
2022-09-23T08:14:14.585Z,16.33
2022-09-23T08:16:42.760Z,16.46
2022-09-23T08:19:09.825Z,16.56
2022-09-23T08:21:38.999Z,16.67
2022-09-23T08:24:07.936Z,16.69
2022-09-23T08:26:35.113Z,16.88
2022-09-23T08:29:02.173Z,16.98
2022-09-23T08:31:29.180Z,17.07
2022-09-23T08:33:57.694Z,17.16
2022-09-23T08:36:25.465Z,17.31
2022-09-23T08:38:52.581Z,17.43
2022-09-23T08:41:37.844Z,17.54
2022-09-23T08:44:27.265Z,17.64
2022-09-23T08:47:00.173Z,17.72
2022-09-23T08:49:36.141Z,17.81
2022-09-23T08:52:23.825Z,17.87
2022-09-23T08:54:55.164Z,17.96
2022-09-23T08:57:57.413Z,18.02
2022-09-23T09:00:42.240Z,18.12
2022-09-23T09:03:23.959Z,18.21
2022-09-23T09:05:54.398Z,18.32
2022-09-23T09:08:31.732Z,18.39
2022-09-23T09:11:00.805Z,18.50
2022-09-23T09:13:43.313Z,18.60
2022-09-23T09:17:06.447Z,18.70
2022-09-23T09:19:55.921Z,18.78
2022-09-23T09:22:52.686Z,18.87
2022-09-23T09:25:44.342Z,18.97
2022-09-23T09:28:36.347Z,19.07
2022-09-23T09:31:31.294Z,19.18
2022-09-23T09:34:13.215Z,19.27
2022-09-23T09:37:11.444Z,19.36
2022-09-23T09:39:38.340Z,19.48
2022-09-23T09:42:06.440Z,19.54
2022-09-23T09:44:42.310Z,19.59
2022-09-23T09:47:31.028Z,19.63
2022-09-23T09:50:19.149Z,19.71
2022-09-23T09:52:46.002Z,19.75
2022-09-23T09:55:12.751Z,19.80
2022-09-23T09:58:01.671Z,19.85
2022-09-23T10:00:28.547Z,19.91
2022-09-23T10:03:14.236Z,19.99
2022-09-23T10:05:44.072Z,20.07
2022-09-23T10:08:34.843Z,20.13
2022-09-23T10:11:03.369Z,20.20
2022-09-23T10:13:31.103Z,20.22
2022-09-23T10:16:03.801Z,20.26
2022-09-23T10:18:51.085Z,20.32
2022-09-23T10:21:27.554Z,20.41
2022-09-23T10:23:58.597Z,20.47
2022-09-23T10:27:01.146Z,20.50
2022-09-23T10:29:39.843Z,20.55
2022-09-23T10:32:30.768Z,20.61
2022-09-23T10:35:14.085Z,20.67
2022-09-23T10:37:45.007Z,20.74
2022-09-23T10:40:51.777Z,20.77
2022-09-23T10:44:17.399Z,20.82
2022-09-23T10:47:09.196Z,20.87
2022-09-23T10:50:08.008Z,20.95
2022-09-23T10:53:19.955Z,21.01
2022-09-23T10:56:40.060Z,21.08
2022-09-23T11:00:00.831Z,21.14
2022-09-23T11:02:57.275Z,21.22
2022-09-23T11:06:00.784Z,21.24
2022-09-23T11:09:26.615Z,21.27
2022-09-23T11:12:01.605Z,21.25
2022-09-23T11:15:00.057Z,21.24
2022-09-23T11:17:50.809Z,21.25
2022-09-23T11:20:55.434Z,21.26
2022-09-23T11:23:51.219Z,21.27
2022-09-23T11:26:56.525Z,21.28
2022-09-23T11:30:06.875Z,21.30
2022-09-23T11:33:04.533Z,21.32
2022-09-23T11:35:49.101Z,21.32
2022-09-23T11:38:30.041Z,21.33
2022-09-23T11:41:08.946Z,21.32
2022-09-23T11:43:39.849Z,21.36
2022-09-23T11:46:42.372Z,21.33
2022-09-23T11:49:40.127Z,21.32
2022-09-23T11:52:23.861Z,21.36
2022-09-23T11:55:21.606Z,21.41
2022-09-23T11:57:54.908Z,21.43
2022-09-23T12:00:26.519Z,21.44
2022-09-23T12:03:06.642Z,21.49
2022-09-23T12:05:44.255Z,21.52
2022-09-23T12:08:33.220Z,21.54
2022-09-23T12:11:20.889Z,21.57
2022-09-23T12:14:12.553Z,21.61
2022-09-23T12:17:17.633Z,21.61
2022-09-23T12:20:10.282Z,21.60
2022-09-23T12:23:10.838Z,21.56
2022-09-23T12:25:56.371Z,21.61
2022-09-23T12:28:30.047Z,21.64
2022-09-23T12:31:00.406Z,21.64
2022-09-23T12:33:31.137Z,21.68
2022-09-23T12:36:10.218Z,21.70
2022-09-23T12:38:57.313Z,21.75
2022-09-23T12:41:28.830Z,21.80
2022-09-23T12:44:13.459Z,21.88
2022-09-23T12:46:47.003Z,21.97
2022-09-23T12:49:27.300Z,22.04
2022-09-23T12:52:13.963Z,22.07
2022-09-23T12:54:42.958Z,22.11
2022-09-23T12:57:12.607Z,22.13
2022-09-23T13:00:12.631Z,22.18
2022-09-23T13:02:47.146Z,22.20
2022-09-23T13:05:39.901Z,22.21
2022-09-23T13:08:17.608Z,22.20
2022-09-23T13:10:58.471Z,22.20
2022-09-23T13:13:44.641Z,22.18
2022-09-23T13:16:34.465Z,22.17
2022-09-23T13:19:03.740Z,22.20
2022-09-23T13:22:08.767Z,22.17
2022-09-23T13:25:03.046Z,22.18
2022-09-23T13:27:34.598Z,22.19
2022-09-23T13:30:27.873Z,22.23
2022-09-23T13:33:12.708Z,22.23
2022-09-23T13:35:50.630Z,22.17
2022-09-23T13:38:25.649Z,22.21
2022-09-23T13:40:57.801Z,22.23
2022-09-23T13:43:43.157Z,22.25
2022-09-23T13:46:17.487Z,22.26
2022-09-23T13:48:46.765Z,22.29
2022-09-23T13:51:33.511Z,22.26
2022-09-23T13:54:03.232Z,22.32
2022-09-23T13:56:33.368Z,22.33
2022-09-23T13:59:38.420Z,22.30
2022-09-23T14:02:16.947Z,22.31
2022-09-23T14:04:44.539Z,22.30
2022-09-23T14:07:14.489Z,22.33
2022-09-23T14:09:48.511Z,22.30
2022-09-23T14:12:21.871Z,22.37
2022-09-23T14:14:51.631Z,22.35
2022-09-23T14:17:22.800Z,22.38
2022-09-23T14:19:50.854Z,22.38
2022-09-23T14:22:29.732Z,22.39
2022-09-23T14:24:57.551Z,22.40
2022-09-23T14:27:36.119Z,22.40
2022-09-23T14:30:04.537Z,22.38
2022-09-23T14:32:32.665Z,22.33
2022-09-23T14:35:05.410Z,22.39
2022-09-23T14:37:55.933Z,22.39
2022-09-23T14:40:30.727Z,22.38
2022-09-23T14:43:23.125Z,22.38
2022-09-23T14:45:57.184Z,22.35
2022-09-23T14:48:35.111Z,22.32
2022-09-23T14:51:09.213Z,22.29
2022-09-23T14:53:43.174Z,22.29
2022-09-23T14:56:14.951Z,22.28
2022-09-23T14:58:59.676Z,22.26
2022-09-23T15:01:32.364Z,22.22
2022-09-23T15:04:16.873Z,22.17
2022-09-23T15:07:06.148Z,22.17
2022-09-23T15:09:40.879Z,22.15
2022-09-23T15:12:21.693Z,22.16
2022-09-23T15:14:54.760Z,22.13
2022-09-23T15:17:36.313Z,22.08
2022-09-23T15:20:08.326Z,22.10
2022-09-23T15:22:54.607Z,22.04
2022-09-23T15:25:31.972Z,22.04
2022-09-23T15:28:14.144Z,22.03
2022-09-23T15:30:41.224Z,22.01
2022-09-23T15:33:12.384Z,22.00
2022-09-23T15:35:47.735Z,21.99
2022-09-23T15:38:14.767Z,21.96
2022-09-23T15:40:42.064Z,21.92
2022-09-23T15:43:24.512Z,21.86
2022-09-23T15:45:55.837Z,21.88
2022-09-23T15:48:31.670Z,21.83
2022-09-23T15:51:05.626Z,21.83
2022-09-23T15:53:32.772Z,21.82
2022-09-23T15:56:00.472Z,21.79
2022-09-23T15:58:27.654Z,21.81
2022-09-23T16:00:57.174Z,21.79
2022-09-23T16:03:28.622Z,21.77
2022-09-23T16:06:00.537Z,21.76
2022-09-23T16:08:28.787Z,21.72
2022-09-23T16:10:55.996Z,21.70
2022-09-23T16:13:23.235Z,21.66
2022-09-23T16:15:50.187Z,21.57
2022-09-23T16:18:17.120Z,21.54
2022-09-23T16:20:46.336Z,21.50
2022-09-23T16:23:40.145Z,21.45
2022-09-23T16:26:15.057Z,21.39
2022-09-23T16:28:42.885Z,21.30
2022-09-23T16:31:11.859Z,21.32
2022-09-23T16:33:39.830Z,21.28
2022-09-23T16:36:28.610Z,21.21
2022-09-23T16:38:56.054Z,21.17
2022-09-23T16:41:24.110Z,21.13
2022-09-23T16:43:51.856Z,21.09
2022-09-23T16:46:20.614Z,21.05
2022-09-23T16:49:01.740Z,20.93
2022-09-23T16:51:37.149Z,20.91
2022-09-23T16:54:11.600Z,20.89
2022-09-23T16:56:45.045Z,20.84
2022-09-23T16:59:13.787Z,20.76
2022-09-23T17:01:59.518Z,20.75
2022-09-23T17:04:27.665Z,20.68
2022-09-23T17:06:55.921Z,20.63
2022-09-23T17:09:26.492Z,20.56
2022-09-23T17:12:04.814Z,20.48
2022-09-23T17:14:32.088Z,20.45
2022-09-23T17:16:59.062Z,20.40
2022-09-23T17:19:26.013Z,20.36
2022-09-23T17:21:53.747Z,20.30
2022-09-23T17:24:20.760Z,20.27
2022-09-23T17:26:52.600Z,20.24
2022-09-23T17:29:19.896Z,20.19
2022-09-23T17:31:47.036Z,20.13
2022-09-23T17:34:14.012Z,20.08
2022-09-23T17:36:40.954Z,20.03
2022-09-23T17:39:07.918Z,19.98
2022-09-23T17:41:34.822Z,19.93
2022-09-23T17:44:01.899Z,19.88
2022-09-23T17:46:30.073Z,19.84
2022-09-23T17:48:57.401Z,19.80
2022-09-23T17:51:25.410Z,19.74
2022-09-23T17:53:52.355Z,19.65
2022-09-23T17:56:22.781Z,19.60
2022-09-23T17:58:50.276Z,19.53
2022-09-23T18:01:21.679Z,19.45
2022-09-23T18:03:53.904Z,19.39
2022-09-23T18:06:23.520Z,19.34
2022-09-23T18:08:51.359Z,19.29
2022-09-23T18:11:22.340Z,19.24
2022-09-23T18:14:02.078Z,19.16
2022-09-23T18:16:33.810Z,19.12
2022-09-23T18:19:02.835Z,19.05
2022-09-23T18:21:36.339Z,19.00
2022-09-23T18:24:28.581Z,18.95
2022-09-23T18:26:50.801Z,18.88
2022-09-23T18:29:19.590Z,18.83
2022-09-23T18:31:49.125Z,18.80
2022-09-23T18:34:17.057Z,18.74
2022-09-23T18:36:44.703Z,18.69
2022-09-23T18:39:11.899Z,18.66
2022-09-23T18:41:38.873Z,18.62
2022-09-23T18:44:05.861Z,18.59
2022-09-23T18:46:32.975Z,18.56
2022-09-23T18:49:18.786Z,18.53
2022-09-23T18:51:54.525Z,18.48
2022-09-23T18:54:25.433Z,18.44
2022-09-23T18:56:55.325Z,18.40
2022-09-23T18:59:27.816Z,18.35
2022-09-23T19:01:57.925Z,18.31
2022-09-23T19:04:26.558Z,18.29
2022-09-23T19:06:56.284Z,18.26
2022-09-23T19:09:23.669Z,18.22
2022-09-23T19:11:52.209Z,18.16
2022-09-23T19:14:19.315Z,18.16
2022-09-23T19:16:48.859Z,18.11
2022-09-23T19:19:15.818Z,18.06
2022-09-23T19:21:42.702Z,18.03
2022-09-23T19:24:15.660Z,17.95
2022-09-23T19:26:43.361Z,17.88
2022-09-23T19:29:16.040Z,17.84
2022-09-23T19:31:43.864Z,17.77
2022-09-23T19:34:17.700Z,17.70
2022-09-23T19:36:46.893Z,17.63
2022-09-23T19:39:23.679Z,17.58
2022-09-23T19:41:52.352Z,17.49
2022-09-23T19:44:20.025Z,17.45
2022-09-23T19:46:53.625Z,17.40
2022-09-23T19:49:24.451Z,17.36
2022-09-23T19:51:51.846Z,17.31
2022-09-23T19:54:21.772Z,17.27
2022-09-23T19:56:49.948Z,17.21
2022-09-23T19:59:19.133Z,17.16
2022-09-23T20:01:48.155Z,17.12
2022-09-23T20:04:16.171Z,17.06
2022-09-23T20:06:43.186Z,17.03
2022-09-23T20:09:10.126Z,17.01
2022-09-23T20:11:37.172Z,16.99
2022-09-23T20:14:05.786Z,16.97
2022-09-23T20:16:35.360Z,16.91
2022-09-23T20:19:04.535Z,16.90
2022-09-23T20:21:33.405Z,16.81
2022-09-23T20:24:00.586Z,16.87
2022-09-23T20:26:45.858Z,16.86
2022-09-23T20:29:12.720Z,16.82
2022-09-23T20:31:41.619Z,16.80
2022-09-23T20:34:10.414Z,16.82
2022-09-23T20:36:39.968Z,16.81
2022-09-23T20:39:07.383Z,16.75
2022-09-23T20:41:37.232Z,16.79
2022-09-23T20:44:12.283Z,16.78
2022-09-23T20:46:48.536Z,16.78
2022-09-23T20:49:17.260Z,16.80
2022-09-23T20:51:44.575Z,16.79
2022-09-23T20:54:12.195Z,16.79
2022-09-23T20:56:39.197Z,16.80
2022-09-23T20:59:06.122Z,16.77
2022-09-23T21:01:36.055Z,16.80
2022-09-23T21:04:07.877Z,16.75
2022-09-23T21:06:36.651Z,16.75
2022-09-23T21:09:05.996Z,16.76
2022-09-23T21:11:33.877Z,16.70
2022-09-23T21:14:01.453Z,16.72
2022-09-23T21:16:28.985Z,16.67
2022-09-23T21:18:56.580Z,16.71
2022-09-23T21:21:23.651Z,16.69
2022-09-23T21:23:50.870Z,16.66
2022-09-23T21:26:20.672Z,16.64
2022-09-23T21:28:50.109Z,16.63
2022-09-23T21:31:35.652Z,16.62
2022-09-23T21:34:05.824Z,16.60
2022-09-23T21:36:37.109Z,16.60
2022-09-23T21:39:09.181Z,16.59
2022-09-23T21:41:37.458Z,16.59
2022-09-23T21:44:05.113Z,16.57
2022-09-23T21:46:35.435Z,16.51
2022-09-23T21:49:03.962Z,16.55
2022-09-23T21:51:40.251Z,16.54
2022-09-23T21:54:15.489Z,16.54
2022-09-23T21:56:43.948Z,16.53
2022-09-23T21:59:10.873Z,16.53
2022-09-23T22:01:41.977Z,16.47
2022-09-23T22:04:18.329Z,16.48
2022-09-23T22:06:46.073Z,16.48
2022-09-23T22:09:19.826Z,16.48
2022-09-23T22:12:05.282Z,16.46
2022-09-23T22:14:32.236Z,16.46
2022-09-23T22:17:02.205Z,16.48
2022-09-23T22:19:44.173Z,16.48
2022-09-23T22:22:16.343Z,16.49
2022-09-23T22:24:46.077Z,16.51
2022-09-23T22:27:17.285Z,16.52
2022-09-23T22:30:03.033Z,16.49
2022-09-23T22:32:43.313Z,16.53
2022-09-23T22:35:17.640Z,16.53
2022-09-23T22:37:45.148Z,16.56
2022-09-23T22:40:14.779Z,16.57
2022-09-23T22:42:42.804Z,16.57
2022-09-23T22:45:11.428Z,16.57
2022-09-23T22:47:40.246Z,16.59
2022-09-23T22:50:09.313Z,16.56
2022-09-23T22:52:36.673Z,16.60
2022-09-23T22:55:04.522Z,16.60
2022-09-23T22:57:31.409Z,16.59
2022-09-23T22:59:58.277Z,16.58
2022-09-23T23:02:25.232Z,16.57
2022-09-23T23:04:52.122Z,16.55
2022-09-23T23:07:21.451Z,16.56
2022-09-23T23:09:50.853Z,16.57
2022-09-23T23:12:20.232Z,16.58
2022-09-23T23:14:48.765Z,16.57
2022-09-23T23:17:15.929Z,16.55
2022-09-23T23:19:42.807Z,16.59
2022-09-23T23:22:09.753Z,16.61
2022-09-23T23:24:36.625Z,16.61
2022-09-23T23:27:03.517Z,16.62
2022-09-23T23:29:30.396Z,16.62
2022-09-23T23:31:57.318Z,16.64
2022-09-23T23:34:24.245Z,16.67
2022-09-23T23:36:54.936Z,16.68
2022-09-23T23:39:24.155Z,16.69
2022-09-23T23:41:56.055Z,16.69
2022-09-23T23:44:24.672Z,16.70
2022-09-23T23:46:52.662Z,16.71
2022-09-23T23:49:19.677Z,16.67
2022-09-23T23:51:47.331Z,16.70
2022-09-23T23:54:15.176Z,16.71
2022-09-23T23:56:42.159Z,16.70
2022-09-23T23:59:09.034Z,16.71
